sensor_id;sensor_type;location;lat;lon;timestamp;temperature;humidity
1381;DHT22;684;48.342;10.096;2022-07-23T00:00:21;25.10;18.70
1381;DHT22;684;48.342;10.096;2022-07-23T00:02:48;25.00;19.70
1381;DHT22;684;48.342;10.096;2022-07-23T00:05:15;24.90;20.00
1381;DHT22;684;48.342;10.096;2022-07-23T00:07:42;24.90;20.50
1381;DHT22;684;48.342;10.096;2022-07-23T00:10:09;24.80;20.80
1381;DHT22;684;48.342;10.096;2022-07-23T00:12:36;24.60;22.00
1381;DHT22;684;48.342;10.096;2022-07-23T00:15:04;24.40;22.70
1381;DHT22;684;48.342;10.096;2022-07-23T00:17:33;24.40;22.40
1381;DHT22;684;48.342;10.096;2022-07-23T00:20:00;24.20;22.00
1381;DHT22;684;48.342;10.096;2022-07-23T00:22:27;24.10;22.00
1381;DHT22;684;48.342;10.096;2022-07-23T00:24:54;24.10;22.40
1381;DHT22;684;48.342;10.096;2022-07-23T00:27:21;24.00;22.90
1381;DHT22;684;48.342;10.096;2022-07-23T00:29:48;23.90;23.40
1381;DHT22;684;48.342;10.096;2022-07-23T00:32:15;23.90;24.50
1381;DHT22;684;48.342;10.096;2022-07-23T00:34:43;23.90;24.90
1381;DHT22;684;48.342;10.096;2022-07-23T00:37:10;23.90;23.50
1381;DHT22;684;48.342;10.096;2022-07-23T00:39:36;23.90;23.10
1381;DHT22;684;48.342;10.096;2022-07-23T00:42:03;23.80;23.70
1381;DHT22;684;48.342;10.096;2022-07-23T00:44:30;23.80;24.00
1381;DHT22;684;48.342;10.096;2022-07-23T00:46:58;23.70;24.90
1381;DHT22;684;48.342;10.096;2022-07-23T00:49:27;23.60;26.20
1381;DHT22;684;48.342;10.096;2022-07-23T00:51:57;23.50;25.50
1381;DHT22;684;48.342;10.096;2022-07-23T00:54:25;23.40;24.90
1381;DHT22;684;48.342;10.096;2022-07-23T00:56:53;23.40;24.90
1381;DHT22;684;48.342;10.096;2022-07-23T00:59:20;23.30;26.20
1381;DHT22;684;48.342;10.096;2022-07-23T01:01:46;23.20;27.30
1381;DHT22;684;48.342;10.096;2022-07-23T01:04:14;23.10;27.50
1381;DHT22;684;48.342;10.096;2022-07-23T01:06:43;23.00;26.90
1381;DHT22;684;48.342;10.096;2022-07-23T01:09:12;22.90;27.00
1381;DHT22;684;48.342;10.096;2022-07-23T01:11:39;22.90;27.20
1381;DHT22;684;48.342;10.096;2022-07-23T01:14:11;22.80;26.70
1381;DHT22;684;48.342;10.096;2022-07-23T01:16:38;22.80;25.40
1381;DHT22;684;48.342;10.096;2022-07-23T01:19:05;22.70;25.70
1381;DHT22;684;48.342;10.096;2022-07-23T01:21:36;22.70;25.80
1381;DHT22;684;48.342;10.096;2022-07-23T01:24:05;22.60;25.70
1381;DHT22;684;48.342;10.096;2022-07-23T01:26:32;22.60;26.40
1381;DHT22;684;48.342;10.096;2022-07-23T01:28:59;22.60;26.40
1381;DHT22;684;48.342;10.096;2022-07-23T01:31:26;22.60;27.40
1381;DHT22;684;48.342;10.096;2022-07-23T01:33:53;22.50;28.60
1381;DHT22;684;48.342;10.096;2022-07-23T01:36:20;22.50;27.40
1381;DHT22;684;48.342;10.096;2022-07-23T01:38:46;22.40;27.60
1381;DHT22;684;48.342;10.096;2022-07-23T01:41:15;22.40;28.30
1381;DHT22;684;48.342;10.096;2022-07-23T01:43:42;22.30;28.10
1381;DHT22;684;48.342;10.096;2022-07-23T01:46:09;22.30;28.90
1381;DHT22;684;48.342;10.096;2022-07-23T01:48:36;22.20;29.00
1381;DHT22;684;48.342;10.096;2022-07-23T01:51:03;22.20;29.30
1381;DHT22;684;48.342;10.096;2022-07-23T01:53:30;22.20;30.10
1381;DHT22;684;48.342;10.096;2022-07-23T01:55:57;22.20;30.40
1381;DHT22;684;48.342;10.096;2022-07-23T01:58:26;22.10;31.60
1381;DHT22;684;48.342;10.096;2022-07-23T02:00:54;22.10;32.70
1381;DHT22;684;48.342;10.096;2022-07-23T02:03:21;22.00;32.90
1381;DHT22;684;48.342;10.096;2022-07-23T02:05:48;22.00;32.70
1381;DHT22;684;48.342;10.096;2022-07-23T02:08:15;21.90;33.00
1381;DHT22;684;48.342;10.096;2022-07-23T02:10:42;21.90;33.30
1381;DHT22;684;48.342;10.096;2022-07-23T02:13:09;21.80;33.50
1381;DHT22;684;48.342;10.096;2022-07-23T02:15:37;21.80;33.50
1381;DHT22;684;48.342;10.096;2022-07-23T02:18:04;21.70;33.80
1381;DHT22;684;48.342;10.096;2022-07-23T02:20:31;21.70;33.80
1381;DHT22;684;48.342;10.096;2022-07-23T02:22:59;21.70;34.00
1381;DHT22;684;48.342;10.096;2022-07-23T02:25:25;21.60;33.80
1381;DHT22;684;48.342;10.096;2022-07-23T02:27:52;21.60;34.10
1381;DHT22;684;48.342;10.096;2022-07-23T02:30:19;21.50;33.80
1381;DHT22;684;48.342;10.096;2022-07-23T02:32:47;21.50;34.10
1381;DHT22;684;48.342;10.096;2022-07-23T02:35:14;21.40;34.40
1381;DHT22;684;48.342;10.096;2022-07-23T02:37:40;21.40;34.90
1381;DHT22;684;48.342;10.096;2022-07-23T02:40:08;21.30;35.00
1381;DHT22;684;48.342;10.096;2022-07-23T02:42:35;21.30;35.30
1381;DHT22;684;48.342;10.096;2022-07-23T02:45:02;21.30;35.10
1381;DHT22;684;48.342;10.096;2022-07-23T02:47:28;21.30;35.10
1381;DHT22;684;48.342;10.096;2022-07-23T02:49:58;21.20;35.30
1381;DHT22;684;48.342;10.096;2022-07-23T02:52:25;21.10;35.30
1381;DHT22;684;48.342;10.096;2022-07-23T02:54:52;21.10;35.30
1381;DHT22;684;48.342;10.096;2022-07-23T02:57:18;21.10;35.30
1381;DHT22;684;48.342;10.096;2022-07-23T02:59:45;21.10;35.20
1381;DHT22;684;48.342;10.096;2022-07-23T03:02:12;21.10;34.70
1381;DHT22;684;48.342;10.096;2022-07-23T03:04:39;21.10;34.70
1381;DHT22;684;48.342;10.096;2022-07-23T03:07:09;21.10;34.50
1381;DHT22;684;48.342;10.096;2022-07-23T03:09:35;21.10;35.70
1381;DHT22;684;48.342;10.096;2022-07-23T03:12:02;21.20;35.20
1381;DHT22;684;48.342;10.096;2022-07-23T03:14:29;21.20;35.30
1381;DHT22;684;48.342;10.096;2022-07-23T03:16:56;21.30;35.10
1381;DHT22;684;48.342;10.096;2022-07-23T03:19:25;21.20;35.00
1381;DHT22;684;48.342;10.096;2022-07-23T03:21:52;21.30;35.00
1381;DHT22;684;48.342;10.096;2022-07-23T03:24:20;21.30;35.30
1381;DHT22;684;48.342;10.096;2022-07-23T03:26:49;21.40;34.70
1381;DHT22;684;48.342;10.096;2022-07-23T03:29:15;21.40;34.30
1381;DHT22;684;48.342;10.096;2022-07-23T03:31:42;21.40;34.30
1381;DHT22;684;48.342;10.096;2022-07-23T03:34:09;21.30;34.50
1381;DHT22;684;48.342;10.096;2022-07-23T03:36:36;21.30;34.30
1381;DHT22;684;48.342;10.096;2022-07-23T03:39:03;21.20;34.10
1381;DHT22;684;48.342;10.096;2022-07-23T03:41:31;21.20;33.90
1381;DHT22;684;48.342;10.096;2022-07-23T03:43:58;21.20;33.50
1381;DHT22;684;48.342;10.096;2022-07-23T03:46:25;21.20;33.80
1381;DHT22;684;48.342;10.096;2022-07-23T03:48:51;21.20;33.10
1381;DHT22;684;48.342;10.096;2022-07-23T03:51:18;21.20;32.90
1381;DHT22;684;48.342;10.096;2022-07-23T03:53:45;21.20;32.50
1381;DHT22;684;48.342;10.096;2022-07-23T03:56:11;21.20;32.30
1381;DHT22;684;48.342;10.096;2022-07-23T03:58:40;21.20;31.90
1381;DHT22;684;48.342;10.096;2022-07-23T04:01:06;21.30;31.70
1381;DHT22;684;48.342;10.096;2022-07-23T04:03:33;21.30;31.50
1381;DHT22;684;48.342;10.096;2022-07-23T04:06:00;21.20;31.60
1381;DHT22;684;48.342;10.096;2022-07-23T04:08:27;21.30;31.80
1381;DHT22;684;48.342;10.096;2022-07-23T04:10:53;21.30;31.80
1381;DHT22;684;48.342;10.096;2022-07-23T04:13:20;21.30;32.60
1381;DHT22;684;48.342;10.096;2022-07-23T04:15:48;21.40;32.00
1381;DHT22;684;48.342;10.096;2022-07-23T04:18:16;21.30;32.10
1381;DHT22;684;48.342;10.096;2022-07-23T04:20:43;21.30;32.20
1381;DHT22;684;48.342;10.096;2022-07-23T04:23:10;21.30;32.50
1381;DHT22;684;48.342;10.096;2022-07-23T04:25:37;21.30;32.30
1381;DHT22;684;48.342;10.096;2022-07-23T04:28:04;21.30;32.00
1381;DHT22;684;48.342;10.096;2022-07-23T04:30:31;21.30;32.00
1381;DHT22;684;48.342;10.096;2022-07-23T04:32:59;21.30;32.20
1381;DHT22;684;48.342;10.096;2022-07-23T04:35:26;21.30;33.30
1381;DHT22;684;48.342;10.096;2022-07-23T04:37:53;21.40;34.00
1381;DHT22;684;48.342;10.096;2022-07-23T04:40:20;21.50;35.40
1381;DHT22;684;48.342;10.096;2022-07-23T04:42:46;21.50;34.80
1381;DHT22;684;48.342;10.096;2022-07-23T04:45:13;21.50;34.30
1381;DHT22;684;48.342;10.096;2022-07-23T04:47:40;21.50;34.20
1381;DHT22;684;48.342;10.096;2022-07-23T04:50:08;21.40;33.80
1381;DHT22;684;48.342;10.096;2022-07-23T04:52:35;21.30;33.70
1381;DHT22;684;48.342;10.096;2022-07-23T04:55:03;21.30;33.90
1381;DHT22;684;48.342;10.096;2022-07-23T04:57:29;21.30;33.90
1381;DHT22;684;48.342;10.096;2022-07-23T04:59:56;21.40;34.20
1381;DHT22;684;48.342;10.096;2022-07-23T05:02:23;21.40;33.40
1381;DHT22;684;48.342;10.096;2022-07-23T05:04:50;21.40;33.30
1381;DHT22;684;48.342;10.096;2022-07-23T05:07:18;21.40;33.10
1381;DHT22;684;48.342;10.096;2022-07-23T05:09:44;21.40;32.90
1381;DHT22;684;48.342;10.096;2022-07-23T05:12:11;21.40;33.30
1381;DHT22;684;48.342;10.096;2022-07-23T05:14:38;21.40;33.60
1381;DHT22;684;48.342;10.096;2022-07-23T05:17:05;21.50;34.20
1381;DHT22;684;48.342;10.096;2022-07-23T05:19:33;21.50;34.70
1381;DHT22;684;48.342;10.096;2022-07-23T05:22:00;21.50;34.00
1381;DHT22;684;48.342;10.096;2022-07-23T05:24:28;21.50;34.00
1381;DHT22;684;48.342;10.096;2022-07-23T05:26:55;21.50;34.00
1381;DHT22;684;48.342;10.096;2022-07-23T05:29:21;21.60;33.90
1381;DHT22;684;48.342;10.096;2022-07-23T05:31:48;21.60;33.50
1381;DHT22;684;48.342;10.096;2022-07-23T05:34:15;21.60;33.20
1381;DHT22;684;48.342;10.096;2022-07-23T05:36:42;21.60;33.10
1381;DHT22;684;48.342;10.096;2022-07-23T05:39:08;21.60;33.10
1381;DHT22;684;48.342;10.096;2022-07-23T05:41:36;21.70;33.00
1381;DHT22;684;48.342;10.096;2022-07-23T05:44:03;21.70;33.10
1381;DHT22;684;48.342;10.096;2022-07-23T05:46:30;21.70;33.20
1381;DHT22;684;48.342;10.096;2022-07-23T05:48:57;21.70;33.00
1381;DHT22;684;48.342;10.096;2022-07-23T05:51:24;21.80;32.80
1381;DHT22;684;48.342;10.096;2022-07-23T05:53:51;21.90;33.00
1381;DHT22;684;48.342;10.096;2022-07-23T05:56:19;21.90;32.80
1381;DHT22;684;48.342;10.096;2022-07-23T05:58:47;22.00;32.30
1381;DHT22;684;48.342;10.096;2022-07-23T06:01:14;22.00;31.50
1381;DHT22;684;48.342;10.096;2022-07-23T06:03:41;22.10;30.90
1381;DHT22;684;48.342;10.096;2022-07-23T06:06:10;22.10;30.70
1381;DHT22;684;48.342;10.096;2022-07-23T06:08:37;22.20;30.50
1381;DHT22;684;48.342;10.096;2022-07-23T06:11:04;22.30;30.30
1381;DHT22;684;48.342;10.096;2022-07-23T06:13:31;22.30;30.30
1381;DHT22;684;48.342;10.096;2022-07-23T06:15:59;22.40;29.90
1381;DHT22;684;48.342;10.096;2022-07-23T06:18:25;22.50;29.00
1381;DHT22;684;48.342;10.096;2022-07-23T06:20:52;22.50;29.00
1381;DHT22;684;48.342;10.096;2022-07-23T06:23:20;22.50;28.90
1381;DHT22;684;48.342;10.096;2022-07-23T06:25:46;22.50;29.20
1381;DHT22;684;48.342;10.096;2022-07-23T06:28:13;22.60;28.80
1381;DHT22;684;48.342;10.096;2022-07-23T06:30:41;22.60;28.70
1381;DHT22;684;48.342;10.096;2022-07-23T06:33:09;22.70;28.60
1381;DHT22;684;48.342;10.096;2022-07-23T06:35:37;22.70;28.20
1381;DHT22;684;48.342;10.096;2022-07-23T06:38:03;22.90;27.80
1381;DHT22;684;48.342;10.096;2022-07-23T06:40:30;22.90;27.30
1381;DHT22;684;48.342;10.096;2022-07-23T06:42:57;22.90;26.60
1381;DHT22;684;48.342;10.096;2022-07-23T06:45:24;22.90;26.50
1381;DHT22;684;48.342;10.096;2022-07-23T06:47:51;22.80;26.70
1381;DHT22;684;48.342;10.096;2022-07-23T06:50:19;22.80;26.60
1381;DHT22;684;48.342;10.096;2022-07-23T06:52:46;22.80;26.80
1381;DHT22;684;48.342;10.096;2022-07-23T06:55:12;22.80;27.30
1381;DHT22;684;48.342;10.096;2022-07-23T06:57:39;22.80;27.60
1381;DHT22;684;48.342;10.096;2022-07-23T07:00:07;22.80;27.70
1381;DHT22;684;48.342;10.096;2022-07-23T07:02:34;22.80;27.60
1381;DHT22;684;48.342;10.096;2022-07-23T07:05:01;22.80;27.90
1381;DHT22;684;48.342;10.096;2022-07-23T07:07:29;22.90;28.00
1381;DHT22;684;48.342;10.096;2022-07-23T07:09:56;22.90;28.30
1381;DHT22;684;48.342;10.096;2022-07-23T07:12:23;23.10;27.70
1381;DHT22;684;48.342;10.096;2022-07-23T07:14:50;23.40;26.90
1381;DHT22;684;48.342;10.096;2022-07-23T07:17:16;23.90;27.00
1381;DHT22;684;48.342;10.096;2022-07-23T07:19:43;25.80;25.00
1381;DHT22;684;48.342;10.096;2022-07-23T07:22:10;29.70;17.40
1381;DHT22;684;48.342;10.096;2022-07-23T07:24:38;33.30;9.70
1381;DHT22;684;48.342;10.096;2022-07-23T07:27:05;36.00;5.90
1381;DHT22;684;48.342;10.096;2022-07-23T07:29:31;38.60;1.80
1381;DHT22;684;48.342;10.096;2022-07-23T07:31:58;40.30;1.00
1381;DHT22;684;48.342;10.096;2022-07-23T07:34:25;41.90;1.00
1381;DHT22;684;48.342;10.096;2022-07-23T07:36:52;43.40;1.00
1381;DHT22;684;48.342;10.096;2022-07-23T07:39:18;44.80;1.00
1381;DHT22;684;48.342;10.096;2022-07-23T07:41:47;46.10;1.00
1381;DHT22;684;48.342;10.096;2022-07-23T07:44:13;47.20;1.00
1381;DHT22;684;48.342;10.096;2022-07-23T07:46:40;48.10;1.00
1381;DHT22;684;48.342;10.096;2022-07-23T07:49:07;48.90;1.00
1381;DHT22;684;48.342;10.096;2022-07-23T07:51:34;49.20;1.00
1381;DHT22;684;48.342;10.096;2022-07-23T07:54:01;49.80;1.00
1381;DHT22;684;48.342;10.096;2022-07-23T07:56:28;50.40;1.00
1381;DHT22;684;48.342;10.096;2022-07-23T07:58:57;51.00;1.00
1381;DHT22;684;48.342;10.096;2022-07-23T08:01:23;51.60;1.00
1381;DHT22;684;48.342;10.096;2022-07-23T08:03:50;52.00;1.00
1381;DHT22;684;48.342;10.096;2022-07-23T08:06:17;52.60;1.00
1381;DHT22;684;48.342;10.096;2022-07-23T08:08:44;52.80;1.00
1381;DHT22;684;48.342;10.096;2022-07-23T08:11:10;51.60;1.00
1381;DHT22;684;48.342;10.096;2022-07-23T08:13:37;50.50;1.00
1381;DHT22;684;48.342;10.096;2022-07-23T08:16:06;49.90;1.00
1381;DHT22;684;48.342;10.096;2022-07-23T08:18:32;50.00;1.00
1381;DHT22;684;48.342;10.096;2022-07-23T08:20:59;49.40;1.00
1381;DHT22;684;48.342;10.096;2022-07-23T08:23:26;49.10;1.00
1381;DHT22;684;48.342;10.096;2022-07-23T08:25:53;49.60;1.00
1381;DHT22;684;48.342;10.096;2022-07-23T08:28:19;50.20;1.00
1381;DHT22;684;48.342;10.096;2022-07-23T08:30:46;51.20;1.00
1381;DHT22;684;48.342;10.096;2022-07-23T08:33:16;51.90;1.00
1381;DHT22;684;48.342;10.096;2022-07-23T08:35:44;52.30;1.00
1381;DHT22;684;48.342;10.096;2022-07-23T08:38:13;52.90;1.00
1381;DHT22;684;48.342;10.096;2022-07-23T08:40:42;53.50;1.00
1381;DHT22;684;48.342;10.096;2022-07-23T08:43:11;53.70;1.00
1381;DHT22;684;48.342;10.096;2022-07-23T08:45:39;52.80;1.00
1381;DHT22;684;48.342;10.096;2022-07-23T08:48:08;50.50;1.00
1381;DHT22;684;48.342;10.096;2022-07-23T08:50:42;48.00;1.00
1381;DHT22;684;48.342;10.096;2022-07-23T08:53:10;46.00;1.00
1381;DHT22;684;48.342;10.096;2022-07-23T08:55:37;45.20;1.00
1381;DHT22;684;48.342;10.096;2022-07-23T08:58:04;44.30;1.00
1381;DHT22;684;48.342;10.096;2022-07-23T09:00:30;45.30;1.00
1381;DHT22;684;48.342;10.096;2022-07-23T09:02:57;44.30;1.00
1381;DHT22;684;48.342;10.096;2022-07-23T09:05:24;42.60;1.00
1381;DHT22;684;48.342;10.096;2022-07-23T09:08:09;41.20;1.00
1381;DHT22;684;48.342;10.096;2022-07-23T09:10:44;40.00;1.00
1381;DHT22;684;48.342;10.096;2022-07-23T09:13:26;39.80;1.00
1381;DHT22;684;48.342;10.096;2022-07-23T09:15:54;39.20;1.00
1381;DHT22;684;48.342;10.096;2022-07-23T09:18:35;39.10;1.00
1381;DHT22;684;48.342;10.096;2022-07-23T09:21:21;39.00;1.00
1381;DHT22;684;48.342;10.096;2022-07-23T09:23:53;40.60;1.00
1381;DHT22;684;48.342;10.096;2022-07-23T09:26:23;43.30;1.00
1381;DHT22;684;48.342;10.096;2022-07-23T09:28:53;44.90;1.00
1381;DHT22;684;48.342;10.096;2022-07-23T09:31:20;44.50;1.00
1381;DHT22;684;48.342;10.096;2022-07-23T09:33:47;44.20;1.00
1381;DHT22;684;48.342;10.096;2022-07-23T09:36:14;44.50;1.00
1381;DHT22;684;48.342;10.096;2022-07-23T09:38:50;43.80;1.00
1381;DHT22;684;48.342;10.096;2022-07-23T09:41:17;44.40;1.00
1381;DHT22;684;48.342;10.096;2022-07-23T09:43:44;44.90;1.00
1381;DHT22;684;48.342;10.096;2022-07-23T09:46:18;43.90;1.00
1381;DHT22;684;48.342;10.096;2022-07-23T09:48:46;43.70;1.00
1381;DHT22;684;48.342;10.096;2022-07-23T09:51:13;42.30;1.00
1381;DHT22;684;48.342;10.096;2022-07-23T09:53:41;41.30;1.00
1381;DHT22;684;48.342;10.096;2022-07-23T09:56:09;41.60;1.00
1381;DHT22;684;48.342;10.096;2022-07-23T09:58:39;41.80;1.00
1381;DHT22;684;48.342;10.096;2022-07-23T10:01:12;41.40;1.00
1381;DHT22;684;48.342;10.096;2022-07-23T10:03:39;40.70;1.00
1381;DHT22;684;48.342;10.096;2022-07-23T10:06:08;39.80;1.00
1381;DHT22;684;48.342;10.096;2022-07-23T10:08:35;38.90;1.00
1381;DHT22;684;48.342;10.096;2022-07-23T10:11:03;38.30;1.00
1381;DHT22;684;48.342;10.096;2022-07-23T10:13:32;37.80;1.00
1381;DHT22;684;48.342;10.096;2022-07-23T10:16:28;37.30;1.00
1381;DHT22;684;48.342;10.096;2022-07-23T10:18:55;36.80;1.00
1381;DHT22;684;48.342;10.096;2022-07-23T10:21:27;36.50;1.00
1381;DHT22;684;48.342;10.096;2022-07-23T10:24:04;36.30;1.00
1381;DHT22;684;48.342;10.096;2022-07-23T10:26:38;36.00;1.20
1381;DHT22;684;48.342;10.096;2022-07-23T10:29:21;35.80;1.40
1381;DHT22;684;48.342;10.096;2022-07-23T10:31:55;35.60;1.40
1381;DHT22;684;48.342;10.096;2022-07-23T10:34:34;35.60;1.90
1381;DHT22;684;48.342;10.096;2022-07-23T10:37:11;35.60;1.60
1381;DHT22;684;48.342;10.096;2022-07-23T10:39:38;35.40;1.20
1381;DHT22;684;48.342;10.096;2022-07-23T10:42:09;35.00;2.50
1381;DHT22;684;48.342;10.096;2022-07-23T10:44:41;34.90;2.30
1381;DHT22;684;48.342;10.096;2022-07-23T10:47:09;34.90;2.40
1381;DHT22;684;48.342;10.096;2022-07-23T10:50:18;34.80;2.50
1381;DHT22;684;48.342;10.096;2022-07-23T10:55:51;34.60;3.10
1381;DHT22;684;48.342;10.096;2022-07-23T10:58:23;34.60;3.00
1381;DHT22;684;48.342;10.096;2022-07-23T11:01:35;34.50;3.00
1381;DHT22;684;48.342;10.096;2022-07-23T11:04:03;34.30;3.60
1381;DHT22;684;48.342;10.096;2022-07-23T11:07:07;34.30;4.50
1381;DHT22;684;48.342;10.096;2022-07-23T11:09:39;34.30;3.70
1381;DHT22;684;48.342;10.096;2022-07-23T11:12:31;34.10;4.20
1381;DHT22;684;48.342;10.096;2022-07-23T11:14:59;34.00;4.50
1381;DHT22;684;48.342;10.096;2022-07-23T11:17:28;33.90;4.00
1381;DHT22;684;48.342;10.096;2022-07-23T11:20:20;33.80;4.30
1381;DHT22;684;48.342;10.096;2022-07-23T11:22:50;33.70;4.10
1381;DHT22;684;48.342;10.096;2022-07-23T11:25:33;33.60;4.30
1381;DHT22;684;48.342;10.096;2022-07-23T11:28:13;33.50;4.10
1381;DHT22;684;48.342;10.096;2022-07-23T11:30:42;33.40;4.70
1381;DHT22;684;48.342;10.096;2022-07-23T11:33:21;33.40;5.10
1381;DHT22;684;48.342;10.096;2022-07-23T11:35:50;33.50;4.90
1381;DHT22;684;48.342;10.096;2022-07-23T11:38:25;33.40;4.40
1381;DHT22;684;48.342;10.096;2022-07-23T11:40:54;33.30;4.60
1381;DHT22;684;48.342;10.096;2022-07-23T11:43:22;33.30;4.40
1381;DHT22;684;48.342;10.096;2022-07-23T11:45:51;33.30;6.20
1381;DHT22;684;48.342;10.096;2022-07-23T11:48:21;33.20;5.60
1381;DHT22;684;48.342;10.096;2022-07-23T11:50:48;33.20;5.00
1381;DHT22;684;48.342;10.096;2022-07-23T11:53:22;33.10;5.50
1381;DHT22;684;48.342;10.096;2022-07-23T11:55:49;33.00;5.60
1381;DHT22;684;48.342;10.096;2022-07-23T11:58:15;32.90;5.50
1381;DHT22;684;48.342;10.096;2022-07-23T12:00:42;32.80;6.00
1381;DHT22;684;48.342;10.096;2022-07-23T12:03:09;32.70;6.40
1381;DHT22;684;48.342;10.096;2022-07-23T12:05:38;32.70;6.60
1381;DHT22;684;48.342;10.096;2022-07-23T12:08:06;32.60;6.10
1381;DHT22;684;48.342;10.096;2022-07-23T12:10:36;32.70;6.50
1381;DHT22;684;48.342;10.096;2022-07-23T12:13:04;32.70;5.80
1381;DHT22;684;48.342;10.096;2022-07-23T12:15:33;32.70;6.10
1381;DHT22;684;48.342;10.096;2022-07-23T12:18:04;32.70;6.30
1381;DHT22;684;48.342;10.096;2022-07-23T12:20:33;32.60;6.10
1381;DHT22;684;48.342;10.096;2022-07-23T12:23:04;32.60;6.40
1381;DHT22;684;48.342;10.096;2022-07-23T12:25:33;32.50;6.70
1381;DHT22;684;48.342;10.096;2022-07-23T12:28:03;32.60;6.90
1381;DHT22;684;48.342;10.096;2022-07-23T12:30:32;32.60;6.60
1381;DHT22;684;48.342;10.096;2022-07-23T12:33:00;32.50;8.50
1381;DHT22;684;48.342;10.096;2022-07-23T12:35:32;32.00;11.40
1381;DHT22;684;48.342;10.096;2022-07-23T12:38:02;31.40;10.70
1381;DHT22;684;48.342;10.096;2022-07-23T12:40:31;30.70;12.50
1381;DHT22;684;48.342;10.096;2022-07-23T12:42:59;30.10;13.10
1381;DHT22;684;48.342;10.096;2022-07-23T12:45:28;29.80;14.50
1381;DHT22;684;48.342;10.096;2022-07-23T12:48:08;29.60;15.40
1381;DHT22;684;48.342;10.096;2022-07-23T12:50:40;29.20;15.60
1381;DHT22;684;48.342;10.096;2022-07-23T12:53:11;28.90;16.10
1381;DHT22;684;48.342;10.096;2022-07-23T12:55:39;28.70;17.30
1381;DHT22;684;48.342;10.096;2022-07-23T12:58:09;28.60;18.70
1381;DHT22;684;48.342;10.096;2022-07-23T13:01:01;28.80;19.70
1381;DHT22;684;48.342;10.096;2022-07-23T13:03:32;29.00;21.90
1381;DHT22;684;48.342;10.096;2022-07-23T13:06:00;29.20;21.00
1381;DHT22;684;48.342;10.096;2022-07-23T13:08:29;29.40;20.80
1381;DHT22;684;48.342;10.096;2022-07-23T13:10:58;29.60;19.20
1381;DHT22;684;48.342;10.096;2022-07-23T13:13:26;29.60;19.90
1381;DHT22;684;48.342;10.096;2022-07-23T13:15:54;29.70;19.10
1381;DHT22;684;48.342;10.096;2022-07-23T13:18:21;29.80;19.00
1381;DHT22;684;48.342;10.096;2022-07-23T13:20:48;29.80;17.10
1381;DHT22;684;48.342;10.096;2022-07-23T13:23:16;29.80;16.40
1381;DHT22;684;48.342;10.096;2022-07-23T13:25:45;29.90;16.20
1381;DHT22;684;48.342;10.096;2022-07-23T13:28:12;30.00;17.40
1381;DHT22;684;48.342;10.096;2022-07-23T13:30:40;30.10;17.70
1381;DHT22;684;48.342;10.096;2022-07-23T13:33:07;30.20;17.90
1381;DHT22;684;48.342;10.096;2022-07-23T13:35:35;30.30;18.40
1381;DHT22;684;48.342;10.096;2022-07-23T13:38:02;30.40;19.30
1381;DHT22;684;48.342;10.096;2022-07-23T13:40:29;30.50;19.50
1381;DHT22;684;48.342;10.096;2022-07-23T13:42:57;30.50;18.90
1381;DHT22;684;48.342;10.096;2022-07-23T13:45:24;30.40;19.30
1381;DHT22;684;48.342;10.096;2022-07-23T13:47:50;30.30;19.60
1381;DHT22;684;48.342;10.096;2022-07-23T13:50:17;30.20;19.60
1381;DHT22;684;48.342;10.096;2022-07-23T13:52:44;30.20;19.20
1381;DHT22;684;48.342;10.096;2022-07-23T13:55:11;30.20;16.60
1381;DHT22;684;48.342;10.096;2022-07-23T13:57:37;30.20;16.40
1381;DHT22;684;48.342;10.096;2022-07-23T14:00:08;30.30;18.60
1381;DHT22;684;48.342;10.096;2022-07-23T14:02:37;30.30;18.80
1381;DHT22;684;48.342;10.096;2022-07-23T14:05:05;30.20;18.40
1381;DHT22;684;48.342;10.096;2022-07-23T14:07:33;30.10;18.90
1381;DHT22;684;48.342;10.096;2022-07-23T14:09:59;30.00;19.60
1381;DHT22;684;48.342;10.096;2022-07-23T14:12:26;29.90;19.70
1381;DHT22;684;48.342;10.096;2022-07-23T14:14:53;29.80;19.30
1381;DHT22;684;48.342;10.096;2022-07-23T14:17:22;29.70;20.00
1381;DHT22;684;48.342;10.096;2022-07-23T14:19:48;29.50;20.00
1381;DHT22;684;48.342;10.096;2022-07-23T14:22:15;29.30;20.00
1381;DHT22;684;48.342;10.096;2022-07-23T14:24:42;29.20;20.60
1381;DHT22;684;48.342;10.096;2022-07-23T14:27:09;29.10;21.20
1381;DHT22;684;48.342;10.096;2022-07-23T14:29:35;28.80;21.40
1381;DHT22;684;48.342;10.096;2022-07-23T14:32:03;28.70;20.30
1381;DHT22;684;48.342;10.096;2022-07-23T14:34:31;28.60;21.40
1381;DHT22;684;48.342;10.096;2022-07-23T14:36:58;28.40;21.50
1381;DHT22;684;48.342;10.096;2022-07-23T14:39:25;28.30;21.20
1381;DHT22;684;48.342;10.096;2022-07-23T14:41:52;28.10;20.80
1381;DHT22;684;48.342;10.096;2022-07-23T14:44:19;27.80;19.90
1381;DHT22;684;48.342;10.096;2022-07-23T14:46:46;27.70;20.90
1381;DHT22;684;48.342;10.096;2022-07-23T14:49:12;27.70;22.00
1381;DHT22;684;48.342;10.096;2022-07-23T14:51:41;27.80;21.80
1381;DHT22;684;48.342;10.096;2022-07-23T14:54:10;27.90;22.70
1381;DHT22;684;48.342;10.096;2022-07-23T14:56:37;28.20;22.80
1381;DHT22;684;48.342;10.096;2022-07-23T14:59:04;28.40;20.50
1381;DHT22;684;48.342;10.096;2022-07-23T15:01:31;28.40;21.00
1381;DHT22;684;48.342;10.096;2022-07-23T15:03:58;28.40;19.10
1381;DHT22;684;48.342;10.096;2022-07-23T15:06:25;28.40;20.80
1381;DHT22;684;48.342;10.096;2022-07-23T15:08:53;28.40;20.70
1381;DHT22;684;48.342;10.096;2022-07-23T15:11:20;28.20;19.30
1381;DHT22;684;48.342;10.096;2022-07-23T15:13:46;28.10;18.90
1381;DHT22;684;48.342;10.096;2022-07-23T15:16:14;27.90;19.60
1381;DHT22;684;48.342;10.096;2022-07-23T15:18:40;27.80;23.00
1381;DHT22;684;48.342;10.096;2022-07-23T15:21:07;27.70;23.20
1381;DHT22;684;48.342;10.096;2022-07-23T15:23:34;27.50;23.50
1381;DHT22;684;48.342;10.096;2022-07-23T15:26:03;27.50;24.50
1381;DHT22;684;48.342;10.096;2022-07-23T15:28:30;27.40;26.50
1381;DHT22;684;48.342;10.096;2022-07-23T15:30:56;27.30;24.60
1381;DHT22;684;48.342;10.096;2022-07-23T15:33:23;27.20;25.10
1381;DHT22;684;48.342;10.096;2022-07-23T15:35:50;27.10;25.30
1381;DHT22;684;48.342;10.096;2022-07-23T15:38:18;27.10;25.70
1381;DHT22;684;48.342;10.096;2022-07-23T15:40:45;27.00;25.80
1381;DHT22;684;48.342;10.096;2022-07-23T15:43:13;27.10;26.70
1381;DHT22;684;48.342;10.096;2022-07-23T15:45:40;27.00;26.30
1381;DHT22;684;48.342;10.096;2022-07-23T15:48:07;27.00;24.40
1381;DHT22;684;48.342;10.096;2022-07-23T15:50:34;27.00;24.20
1381;DHT22;684;48.342;10.096;2022-07-23T15:53:01;27.00;24.20
1381;DHT22;684;48.342;10.096;2022-07-23T15:55:27;26.90;23.80
1381;DHT22;684;48.342;10.096;2022-07-23T15:57:54;26.90;24.20
1381;DHT22;684;48.342;10.096;2022-07-23T16:00:23;26.80;23.40
1381;DHT22;684;48.342;10.096;2022-07-23T16:02:49;26.80;22.60
1381;DHT22;684;48.342;10.096;2022-07-23T16:05:17;26.80;22.00
1381;DHT22;684;48.342;10.096;2022-07-23T16:08:00;26.90;21.90
1381;DHT22;684;48.342;10.096;2022-07-23T16:10:27;26.80;21.80
1381;DHT22;684;48.342;10.096;2022-07-23T16:12:54;26.80;21.80
1381;DHT22;684;48.342;10.096;2022-07-23T16:15:23;26.80;21.60
1381;DHT22;684;48.342;10.096;2022-07-23T16:17:50;26.90;21.50